Time;durP1;ratioP1;P1;durP2;ratioP2;P2;SDS_P1;SDS_P2;PMS_P1;PMS_P2;Temp;Humidity;BMP_temperature;BMP_pressure;BME280_temperature;BME280_humidity;BME280_pressure;Samples;Min_cycle;Max_cycle;Signal;HPM_P1;HPM_P2
2021/12/24 00:01:51;;;;;;;4.53;4.13;;;;;;;;;;5051359;28;20471;-79
2021/12/24 00:04:18;;;;;;;6.73;6.13;;;;;;;;;;5050797;28;20442;-78
2021/12/24 00:06:47;;;;;;;5.07;4.53;;;;;;;;;;5052042;28;20518;-79
2021/12/24 00:09:21;;;;;;;4.20;3.90;;;;;;;;;;5050956;28;20820;-78
2021/12/24 00:11:48;;;;;;;4.60;4.20;;;;;;;;;;5051028;28;20456;-79
2021/12/24 00:14:15;;;;;;;5.10;4.70;;;;;;;;;;5051007;28;20445;-78
2021/12/24 00:16:47;;;;;;;5.43;5.00;;;;;;;;;;5066629;28;20507;-78
2021/12/24 00:19:19;;;;;;;4.82;4.43;;;;;;;;;;5069228;28;20456;-78
2021/12/24 00:22:21;;;;;;;5.30;4.80;;;;;;;;;;5070931;28;20463;-78
2021/12/24 00:35:52;;;;;;;5.43;4.90;;;;;;;;;;5074818;28;20437;-78
2021/12/24 00:38:20;;;;;;;5.93;4.73;;;;;;;;;;5074684;28;20963;-78
2021/12/24 00:40:48;;;;;;;6.33;5.73;;;;;;;;;;5075492;28;20441;-78
2021/12/24 00:43:16;;;;;;;5.80;4.97;;;;;;;;;;5074503;28;20472;-78
2021/12/24 00:45:44;;;;;;;5.43;4.90;;;;;;;;;;5074491;28;20460;-78
2021/12/24 00:48:12;;;;;;;6.57;6.07;;;;;;;;;;5074580;28;20474;-79
2021/12/24 00:50:52;;;;;;;5.30;4.80;;;;;;;;;;5079418;28;20447;-77
2021/12/24 00:56:07;;;;;;;5.60;5.00;;;;;;;;;;5056082;28;20522;-79
2021/12/24 00:58:35;;;;;;;5.70;5.20;;;;;;;;;;5097689;28;20444;-79
2021/12/24 01:01:02;;;;;;;5.40;4.90;;;;;;;;;;5099111;28;20431;-80
2021/12/24 01:03:29;;;;;;;5.97;5.20;;;;;;;;;;5097984;28;20463;-79
2021/12/24 01:05:56;;;;;;;5.67;5.17;;;;;;;;;;5098988;28;20448;-79
2021/12/24 01:08:24;;;;;;;5.77;4.70;;;;;;;;;;5098353;28;20436;-78
2021/12/24 01:10:53;;;;;;;5.83;5.27;;;;;;;;;;5097094;28;20443;-79
2021/12/24 01:13:20;;;;;;;5.50;5.03;;;;;;;;;;5097780;28;20495;-79
2021/12/24 01:15:55;;;;;;;6.07;4.80;;;;;;;;;;5097110;28;20459;-78
2021/12/24 01:18:31;;;;;;;5.10;4.70;;;;;;;;;;5096583;28;20443;-79
2021/12/24 01:21:11;;;;;;;5.27;4.77;;;;;;;;;;5096097;28;20512;-79
2021/12/24 01:23:46;;;;;;;4.60;4.20;;;;;;;;;;5096459;28;20521;-79
2021/12/24 01:26:19;;;;;;;4.93;4.53;;;;;;;;;;5096835;28;20206;-80
2021/12/24 01:29:08;;;;;;;4.37;4.07;;;;;;;;;;5075254;28;20902;-78
2021/12/24 01:40:07;;;;;;;4.60;4.30;;;;;;;;;;5073291;28;20428;-80
2021/12/24 01:42:42;;;;;;;5.37;4.67;;;;;;;;;;5072347;28;20525;-78
2021/12/24 01:45:16;;;;;;;4.97;3.70;;;;;;;;;;5072887;28;20831;-78
2021/12/24 01:47:43;;;;;;;6.23;4.17;;;;;;;;;;5073248;28;20451;-79
2021/12/24 01:50:11;;;;;;;5.83;4.00;;;;;;;;;;5073183;28;20482;-78
2021/12/24 01:52:38;;;;;;;4.93;4.00;;;;;;;;;;5072895;28;20856;-79
2021/12/24 01:55:07;;;;;;;4.50;4.10;;;;;;;;;;5073297;28;20467;-79
2021/12/24 01:57:34;;;;;;;3.77;3.47;;;;;;;;;;5073332;28;20483;-79
2021/12/24 02:00:03;;;;;;;4.17;3.87;;;;;;;;;;5073231;28;20498;-79
2021/12/24 02:02:30;;;;;;;3.70;3.40;;;;;;;;;;5071119;28;20970;-78
2021/12/24 02:04:57;;;;;;;4.03;3.63;;;;;;;;;;5072682;28;20459;-78
2021/12/24 02:07:24;;;;;;;4.03;3.70;;;;;;;;;;5072730;28;20443;-78
2021/12/24 02:09:51;;;;;;;4.10;3.60;;;;;;;;;;5072914;28;20512;-78
2021/12/24 02:12:19;;;;;;;4.00;3.70;;;;;;;;;;5072824;28;20457;-78
2021/12/24 02:14:51;;;;;;;3.70;3.40;;;;;;;;;;5072246;28;21006;-78
2021/12/24 02:17:47;;;;;;;4.40;4.00;;;;;;;;;;5072935;28;20427;-79
2021/12/24 02:28:38;;;;;;;4.53;4.18;;;;;;;;;;5032325;28;20460;-79
2021/12/24 02:31:05;;;;;;;3.87;3.57;;;;;;;;;;5072926;28;20431;-78
2021/12/24 02:33:32;;;;;;;5.47;3.63;;;;;;;;;;5072434;28;20432;-78
2021/12/24 02:36:01;;;;;;;3.70;3.50;;;;;;;;;;5072342;28;20464;-78
2021/12/24 02:38:28;;;;;;;5.20;4.00;;;;;;;;;;5072242;28;20436;-78
2021/12/24 02:40:55;;;;;;;5.10;4.03;;;;;;;;;;5072262;28;20432;-79
2021/12/24 02:43:24;;;;;;;3.90;3.60;;;;;;;;;;5072019;28;20481;-79
2021/12/24 02:45:54;;;;;;;4.10;3.10;;;;;;;;;;5071904;28;20469;-78
2021/12/24 02:53:57;;;;;;;4.43;3.90;;;;;;;;;;5071737;28;20483;-79
2021/12/24 02:56:26;;;;;;;3.60;3.30;;;;;;;;;;5073618;28;20473;-79
2021/12/24 02:58:53;;;;;;;3.70;3.50;;;;;;;;;;5072098;28;20194;-79
2021/12/24 03:01:21;;;;;;;4.00;3.60;;;;;;;;;;5071968;28;20866;-79
2021/12/24 03:03:49;;;;;;;3.50;3.20;;;;;;;;;;5071637;28;20491;-78
2021/12/24 03:06:17;;;;;;;4.03;3.72;;;;;;;;;;5071469;28;20454;-78
2021/12/24 03:08:44;;;;;;;3.47;3.17;;;;;;;;;;5071631;28;20212;-79
2021/12/24 03:11:11;;;;;;;4.13;3.83;;;;;;;;;;5071605;28;20967;-79
2021/12/24 03:13:39;;;;;;;3.60;3.30;;;;;;;;;;5072117;28;20483;-78
2021/12/24 03:16:07;;;;;;;3.83;3.43;;;;;;;;;;5071628;28;20506;-79
2021/12/24 03:18:36;;;;;;;3.75;3.38;;;;;;;;;;5072693;28;20959;-78
2021/12/24 03:21:08;;;;;;;4.30;3.40;;;;;;;;;;5071754;28;20221;-79
2021/12/24 03:23:40;;;;;;;3.90;3.60;;;;;;;;;;5071364;28;20461;-79
2021/12/24 03:26:09;;;;;;;4.40;3.97;;;;;;;;;;5071612;28;20500;-79
2021/12/24 03:28:36;;;;;;;3.50;3.20;;;;;;;;;;5072093;28;20520;-79
2021/12/24 03:31:03;;;;;;;3.83;3.43;;;;;;;;;;5072084;28;20444;-79
2021/12/24 03:33:30;;;;;;;4.07;3.77;;;;;;;;;;5071903;28;20440;-78
2021/12/24 03:35:57;;;;;;;4.60;4.20;;;;;;;;;;5071387;28;20461;-79
2021/12/24 03:38:24;;;;;;;3.60;3.30;;;;;;;;;;5072079;28;20451;-79
2021/12/24 03:40:52;;;;;;;3.70;3.40;;;;;;;;;;5071734;28;20440;-78
2021/12/24 03:43:19;;;;;;;3.70;3.40;;;;;;;;;;5071271;28;20476;-78
2021/12/24 03:45:57;;;;;;;3.65;3.35;;;;;;;;;;5072103;28;20470;-78
2021/12/24 03:48:37;;;;;;;5.53;3.50;;;;;;;;;;5071739;28;20194;-78
2021/12/24 03:51:19;;;;;;;4.30;3.70;;;;;;;;;;5071542;28;20452;-79
2021/12/24 03:56:34;;;;;;;4.60;4.10;;;;;;;;;;5071227;28;20439;-78
2021/12/24 03:59:01;;;;;;;4.67;4.27;;;;;;;;;;5072179;28;20447;-78
2021/12/24 04:01:28;;;;;;;4.28;3.97;;;;;;;;;;5073900;28;20741;-80
2021/12/24 04:03:55;;;;;;;3.50;3.30;;;;;;;;;;5072022;28;20226;-78
2021/12/24 04:06:23;;;;;;;3.80;3.50;;;;;;;;;;5075294;28;20570;-79
2021/12/24 04:08:51;;;;;;;3.77;3.47;;;;;;;;;;5076168;28;20443;-79
2021/12/24 04:11:18;;;;;;;4.63;3.63;;;;;;;;;;5077982;28;20805;-78
2021/12/24 04:13:47;;;;;;;3.87;3.60;;;;;;;;;;5081632;28;20429;-79
2021/12/24 04:16:15;;;;;;;4.50;4.10;;;;;;;;;;5081563;28;20463;-77
2021/12/24 04:18:49;;;;;;;3.77;3.47;;;;;;;;;;5087108;28;20445;-77
2021/12/24 04:26:50;;;;;;;4.20;3.80;;;;;;;;;;5094689;28;20447;-78
2021/12/24 04:29:18;;;;;;;4.03;3.73;;;;;;;;;;5084207;28;20445;-78
2021/12/24 04:31:53;;;;;;;4.72;3.33;;;;;;;;;;5094082;28;20450;-78
2021/12/24 04:34:25;;;;;;;4.20;3.80;;;;;;;;;;5092426;28;20216;-79
2021/12/24 04:37:46;;;;;;;4.27;3.87;;;;;;;;;;5093425;28;20199;-78
2021/12/24 04:39:51;;;;;;;5.50;3.70;;;;;;;;;;5093547;28;20535;-77
2021/12/24 05:01:42;;;;;;;3.87;3.57;;;;;;;;;;5084464;28;20428;-79
2021/12/24 05:04:11;;;;;;;3.83;3.53;;;;;;;;;;5065051;28;20477;-78
2021/12/24 05:06:48;;;;;;;4.10;3.70;;;;;;;;;;5070459;28;20233;-77
2021/12/24 05:09:20;;;;;;;3.70;3.20;;;;;;;;;;5070704;28;20508;-78
2021/12/24 05:11:47;;;;;;;4.83;3.50;;;;;;;;;;5067544;28;20453;-78
2021/12/24 05:14:15;;;;;;;3.40;3.13;;;;;;;;;;5062624;28;20438;-78
2021/12/24 05:16:47;;;;;;;3.80;3.50;;;;;;;;;;5053449;28;20465;-78
2021/12/24 05:21:59;;;;;;;4.03;3.63;;;;;;;;;;5054593;28;20406;-79
2021/12/24 05:24:30;;;;;;;3.53;3.23;;;;;;;;;;5053547;28;20483;-78
2021/12/24 05:26:58;;;;;;;3.97;3.67;;;;;;;;;;5054407;28;20559;-78
2021/12/24 05:29:25;;;;;;;2.95;2.75;;;;;;;;;;5054021;28;20448;-78
2021/12/24 05:31:53;;;;;;;3.83;3.43;;;;;;;;;;5056897;28;20200;-79
2021/12/24 05:34:21;;;;;;;3.70;3.40;;;;;;;;;;5062881;28;20927;-78
2021/12/24 05:36:49;;;;;;;3.97;3.67;;;;;;;;;;5054690;28;20461;-78
2021/12/24 05:39:17;;;;;;;3.90;3.60;;;;;;;;;;5053743;28;20433;-79
2021/12/24 05:41:45;;;;;;;5.00;4.00;;;;;;;;;;5053985;28;20465;-78
2021/12/24 05:44:15;;;;;;;4.18;3.88;;;;;;;;;;5053857;28;20848;-78
2021/12/24 05:46:43;;;;;;;3.90;3.60;;;;;;;;;;5053575;28;20222;-78
2021/12/24 05:49:11;;;;;;;3.67;3.38;;;;;;;;;;5054477;28;20465;-79
2021/12/24 05:51:38;;;;;;;3.43;3.20;;;;;;;;;;5053451;28;20230;-77
2021/12/24 05:54:06;;;;;;;4.03;3.73;;;;;;;;;;5053804;28;20441;-78
2021/12/24 05:56:33;;;;;;;3.90;3.60;;;;;;;;;;5059797;28;20477;-78
2021/12/24 05:59:00;;;;;;;5.20;3.70;;;;;;;;;;5067646;28;20434;-78
2021/12/24 06:01:27;;;;;;;4.23;3.93;;;;;;;;;;5071331;28;20442;-78
2021/12/24 06:03:54;;;;;;;4.30;3.73;;;;;;;;;;5073435;28;20524;-77
2021/12/24 06:06:22;;;;;;;4.67;4.27;;;;;;;;;;5075676;28;20454;-78
2021/12/24 06:08:49;;;;;;;5.07;4.10;;;;;;;;;;5067377;28;20467;-78
2021/12/24 06:11:16;;;;;;;4.40;4.00;;;;;;;;;;5077914;28;20470;-78
2021/12/24 06:13:44;;;;;;;5.37;4.83;;;;;;;;;;5078239;28;20437;-77
2021/12/24 06:16:11;;;;;;;6.07;5.10;;;;;;;;;;5078021;28;20470;-80
2021/12/24 06:18:40;;;;;;;5.10;4.33;;;;;;;;;;5078265;28;20449;-78
2021/12/24 06:21:07;;;;;;;8.80;4.25;;;;;;;;;;5078440;28;20428;-79
2021/12/24 06:23:37;;;;;;;5.30;4.57;;;;;;;;;;5077872;28;20253;-79
2021/12/24 06:26:05;;;;;;;4.50;4.10;;;;;;;;;;5073727;28;20485;-79
2021/12/24 06:28:32;;;;;;;4.47;4.00;;;;;;;;;;5076645;28;20249;-78
2021/12/24 06:31:00;;;;;;;4.87;4.20;;;;;;;;;;5077964;28;20437;-79
2021/12/24 06:33:27;;;;;;;5.10;4.17;;;;;;;;;;5076729;28;20431;-80
2021/12/24 06:35:56;;;;;;;4.40;4.00;;;;;;;;;;5077830;28;20489;-78
2021/12/24 06:38:23;;;;;;;4.77;4.07;;;;;;;;;;5077689;28;20436;-79
2021/12/24 06:40:52;;;;;;;4.47;4.10;;;;;;;;;;5077840;28;20433;-78
2021/12/24 06:43:19;;;;;;;4.33;4.03;;;;;;;;;;5075706;28;20452;-77
2021/12/24 06:45:47;;;;;;;4.50;4.20;;;;;;;;;;5072087;28;20461;-81
2021/12/24 06:48:14;;;;;;;3.85;3.50;;;;;;;;;;5071597;28;20916;-79
2021/12/24 06:50:41;;;;;;;4.23;3.93;;;;;;;;;;5075242;28;20187;-77
2021/12/24 06:53:09;;;;;;;4.57;4.20;;;;;;;;;;5071086;28;20458;-78
2021/12/24 06:55:36;;;;;;;4.43;4.10;;;;;;;;;;5084367;28;20457;-78
2021/12/24 06:58:04;;;;;;;4.50;4.10;;;;;;;;;;5073454;28;20452;-79
2021/12/24 07:00:32;;;;;;;4.57;4.17;;;;;;;;;;5091051;28;20213;-79
2021/12/24 07:02:59;;;;;;;4.10;3.73;;;;;;;;;;5083258;28;20471;-79
2021/12/24 07:05:26;;;;;;;4.13;3.83;;;;;;;;;;5071081;28;20487;-78
2021/12/24 07:07:53;;;;;;;5.00;4.60;;;;;;;;;;5056587;28;20444;-79
2021/12/24 07:10:20;;;;;;;4.30;4.00;;;;;;;;;;5053200;28;20522;-79
2021/12/24 07:12:47;;;;;;;5.07;4.60;;;;;;;;;;5052584;28;20465;-80
2021/12/24 07:15:17;;;;;;;4.20;3.90;;;;;;;;;;5052692;28;20499;-80
2021/12/24 07:17:44;;;;;;;9.27;4.00;;;;;;;;;;5053658;28;20546;-79
2021/12/24 07:20:11;;;;;;;4.60;3.83;;;;;;;;;;5053572;28;20209;-79
2021/12/24 07:22:38;;;;;;;4.33;3.93;;;;;;;;;;5052785;28;20833;-78
2021/12/24 07:25:06;;;;;;;4.73;4.33;;;;;;;;;;5054857;28;20486;-79
2021/12/24 07:27:33;;;;;;;5.07;4.57;;;;;;;;;;5053599;28;20477;-78
2021/12/24 07:30:00;;;;;;;4.97;4.40;;;;;;;;;;5053725;28;20488;-79
2021/12/24 07:32:29;;;;;;;4.90;3.93;;;;;;;;;;5053303;28;20445;-79
2021/12/24 07:34:56;;;;;;;5.30;4.83;;;;;;;;;;5054084;28;20465;-80
2021/12/24 07:37:23;;;;;;;4.53;4.23;;;;;;;;;;5054163;28;20426;-78
2021/12/24 07:39:50;;;;;;;4.80;4.40;;;;;;;;;;5055214;28;20509;-78
2021/12/24 07:42:17;;;;;;;5.30;4.80;;;;;;;;;;5058297;28;20452;-79
2021/12/24 07:44:44;;;;;;;4.87;4.40;;;;;;;;;;5056367;28;20534;-79
2021/12/24 07:47:18;;;;;;;4.83;4.43;;;;;;;;;;5055947;28;20952;-79
2021/12/24 07:49:48;;;;;;;5.30;4.80;;;;;;;;;;5058015;28;20558;-80
2021/12/24 07:52:15;;;;;;;4.37;4.07;;;;;;;;;;5057074;28;20441;-78
2021/12/24 07:54:43;;;;;;;4.63;4.22;;;;;;;;;;5059000;28;20436;-80
2021/12/24 07:57:11;;;;;;;5.43;4.40;;;;;;;;;;5060445;28;20207;-80
2021/12/24 07:59:39;;;;;;;4.40;4.10;;;;;;;;;;5057018;28;20448;-78
2021/12/24 08:02:09;;;;;;;4.10;3.80;;;;;;;;;;5056880;28;20435;-79
2021/12/24 08:04:37;;;;;;;6.23;4.57;;;;;;;;;;5056356;28;20550;-80
2021/12/24 08:07:05;;;;;;;4.80;4.40;;;;;;;;;;5056986;28;20435;-79
2021/12/24 08:09:32;;;;;;;6.07;5.47;;;;;;;;;;5056777;28;20207;-79
2021/12/24 08:11:59;;;;;;;5.00;4.57;;;;;;;;;;5056752;28;20857;-80
2021/12/24 08:14:26;;;;;;;5.60;5.10;;;;;;;;;;5056961;28;20490;-78
2021/12/24 08:16:54;;;;;;;4.50;4.20;;;;;;;;;;5057000;28;20442;-79
2021/12/24 08:19:21;;;;;;;4.80;4.40;;;;;;;;;;5057421;28;20461;-80
2021/12/24 08:21:48;;;;;;;5.30;4.60;;;;;;;;;;5056667;28;20491;-81
2021/12/24 08:24:16;;;;;;;4.77;4.37;;;;;;;;;;5056229;28;20492;-81
2021/12/24 08:26:43;;;;;;;4.95;3.67;;;;;;;;;;5057099;28;20474;-79
2021/12/24 08:29:10;;;;;;;4.30;3.90;;;;;;;;;;5057903;28;20204;-79
2021/12/24 08:31:38;;;;;;;4.60;4.20;;;;;;;;;;5057383;28;20433;-79
2021/12/24 08:34:06;;;;;;;4.53;4.13;;;;;;;;;;5056928;28;20476;-80
2021/12/24 08:36:33;;;;;;;3.80;3.60;;;;;;;;;;5062382;28;20471;-79
2021/12/24 08:39:00;;;;;;;3.97;3.67;;;;;;;;;;5070363;28;20447;-80
2021/12/24 08:41:28;;;;;;;4.00;3.60;;;;;;;;;;5079029;28;20274;-79
2021/12/24 08:43:55;;;;;;;3.80;3.50;;;;;;;;;;5078110;28;20260;-81
2021/12/24 08:46:22;;;;;;;4.80;3.90;;;;;;;;;;5072026;28;20471;-79
2021/12/24 08:48:49;;;;;;;4.07;3.77;;;;;;;;;;5059113;28;20464;-82
2021/12/24 08:51:17;;;;;;;3.60;3.40;;;;;;;;;;5057978;28;20452;-82
2021/12/24 08:53:44;;;;;;;4.67;4.00;;;;;;;;;;5058406;28;20451;-78
2021/12/24 08:56:11;;;;;;;4.13;3.60;;;;;;;;;;5058825;28;20877;-79
2021/12/24 08:58:39;;;;;;;3.87;3.57;;;;;;;;;;5061967;28;20435;-79
2021/12/24 09:01:07;;;;;;;4.43;4.00;;;;;;;;;;5071482;28;20434;-80
2021/12/24 09:03:34;;;;;;;4.93;3.93;;;;;;;;;;5082713;28;20456;-80
2021/12/24 09:06:01;;;;;;;4.32;3.40;;;;;;;;;;5087602;28;20480;-79
2021/12/24 09:08:28;;;;;;;3.53;3.33;;;;;;;;;;5071888;28;20216;-81
2021/12/24 09:10:55;;;;;;;6.90;4.40;;;;;;;;;;5078020;28;20516;-81
2021/12/24 09:13:23;;;;;;;4.33;4.00;;;;;;;;;;5076574;28;20443;-80
2021/12/24 09:15:53;;;;;;;3.75;3.50;;;;;;;;;;5077470;28;20470;-79
2021/12/24 09:18:21;;;;;;;3.87;3.53;;;;;;;;;;5077723;28;20189;-81
2021/12/24 09:20:48;;;;;;;4.03;3.72;;;;;;;;;;5077955;28;20465;-79
2021/12/24 09:23:17;;;;;;;5.70;4.37;;;;;;;;;;5075981;28;20237;-78
2021/12/24 09:25:44;;;;;;;4.43;4.03;;;;;;;;;;5076970;28;20489;-81
2021/12/24 09:28:11;;;;;;;5.10;4.70;;;;;;;;;;5078082;28;20444;-78
2021/12/24 09:30:38;;;;;;;4.50;4.10;;;;;;;;;;5077760;28;20805;-80
2021/12/24 09:33:07;;;;;;;4.03;3.70;;;;;;;;;;5077041;28;20436;-80
2021/12/24 09:35:34;;;;;;;4.00;3.70;;;;;;;;;;5080603;28;20480;-79
2021/12/24 09:38:03;;;;;;;4.67;4.30;;;;;;;;;;5080058;28;20891;-79
2021/12/24 09:40:33;;;;;;;4.60;4.20;;;;;;;;;;5079545;28;20441;-79
2021/12/24 09:43:01;;;;;;;4.30;3.90;;;;;;;;;;5076584;28;20429;-81
2021/12/24 09:45:28;;;;;;;5.50;4.47;;;;;;;;;;5076259;28;20481;-81
2021/12/24 09:47:55;;;;;;;6.13;4.03;;;;;;;;;;5072761;28;20486;-80
2021/12/24 09:50:25;;;;;;;4.82;4.32;;;;;;;;;;5068508;28;20857;-79
2021/12/24 09:52:53;;;;;;;5.30;4.80;;;;;;;;;;5076263;28;20190;-81
2021/12/24 09:55:21;;;;;;;4.40;4.03;;;;;;;;;;5074629;28;20465;-81
2021/12/24 09:57:48;;;;;;;5.00;4.57;;;;;;;;;;5072862;28;20456;-79
2021/12/24 10:00:17;;;;;;;7.40;4.47;;;;;;;;;;5065479;28;20449;-79
2021/12/24 10:02:46;;;;;;;4.27;3.90;;;;;;;;;;5055662;28;20445;-80
2021/12/24 10:05:28;;;;;;;4.20;3.80;;;;;;;;;;5056598;28;20484;-79
2021/12/24 10:07:59;;;;;;;4.73;4.33;;;;;;;;;;5056994;28;20436;-80
2021/12/24 10:10:29;;;;;;;5.03;4.63;;;;;;;;;;5056474;28;20847;-80
2021/12/24 10:12:58;;;;;;;5.07;3.90;;;;;;;;;;5055520;28;21050;-81
2021/12/24 10:15:25;;;;;;;4.47;4.07;;;;;;;;;;5057236;28;20884;-80
2021/12/24 10:17:52;;;;;;;4.37;3.97;;;;;;;;;;5056237;28;20433;-81
2021/12/24 10:20:21;;;;;;;4.30;3.90;;;;;;;;;;5056486;28;20472;-80
2021/12/24 10:22:50;;;;;;;4.67;4.30;;;;;;;;;;5061047;28;20878;-79
2021/12/24 10:25:18;;;;;;;4.90;4.10;;;;;;;;;;5066836;28;20480;-79
2021/12/24 10:27:45;;;;;;;3.93;3.63;;;;;;;;;;5064307;28;20441;-80
2021/12/24 10:30:16;;;;;;;4.10;3.80;;;;;;;;;;5061548;28;20440;-78
2021/12/24 10:32:43;;;;;;;4.30;3.90;;;;;;;;;;5064445;28;20576;-79
2021/12/24 10:35:19;;;;;;;4.87;4.47;;;;;;;;;;5066121;28;20496;-81
2021/12/24 10:37:46;;;;;;;5.60;4.03;;;;;;;;;;5066068;28;20414;-81
2021/12/24 10:40:14;;;;;;;4.90;4.47;;;;;;;;;;5058768;28;20440;-81
2021/12/24 10:42:43;;;;;;;5.40;4.90;;;;;;;;;;5056160;28;20434;-81
2021/12/24 10:45:16;;;;;;;4.63;4.17;;;;;;;;;;5055513;28;20483;-78
2021/12/24 10:47:43;;;;;;;4.30;4.00;;;;;;;;;;5068613;28;20439;-79
2021/12/24 10:50:26;;;;;;;4.57;4.20;;;;;;;;;;5075663;28;20904;-80
2021/12/24 10:55:32;;;;;;;3.63;3.33;;;;;;;;;;5076197;28;20429;-79
2021/12/24 10:58:00;;;;;;;4.27;3.90;;;;;;;;;;5069333;28;20813;-80
2021/12/24 11:00:29;;;;;;;4.67;3.73;;;;;;;;;;5066986;28;20830;-80
2021/12/24 11:02:57;;;;;;;4.37;4.07;;;;;;;;;;5074522;28;20448;-79
2021/12/24 11:05:32;;;;;;;4.13;3.83;;;;;;;;;;5074352;28;20474;-81
2021/12/24 11:07:59;;;;;;;4.23;3.93;;;;;;;;;;5074583;28;20963;-78
2021/12/24 11:10:27;;;;;;;5.53;5.03;;;;;;;;;;5074765;28;20452;-81
2021/12/24 11:12:57;;;;;;;5.37;5.00;;;;;;;;;;5075877;28;20449;-79
2021/12/24 11:15:25;;;;;;;4.50;4.20;;;;;;;;;;5078892;28;20459;-79
2021/12/24 11:17:53;;;;;;;5.60;4.07;;;;;;;;;;5075223;28;20440;-80
2021/12/24 11:20:20;;;;;;;5.83;3.60;;;;;;;;;;5075325;28;20432;-79
2021/12/24 11:22:53;;;;;;;4.95;4.40;;;;;;;;;;5075505;28;20442;-79
2021/12/24 11:25:20;;;;;;;4.20;3.90;;;;;;;;;;5075872;28;20558;-81
2021/12/24 11:27:47;;;;;;;4.13;3.73;;;;;;;;;;5075862;28;20435;-79
2021/12/24 11:30:16;;;;;;;4.00;3.60;;;;;;;;;;5075580;28;20459;-80
2021/12/24 11:32:44;;;;;;;3.20;3.00;;;;;;;;;;5075224;28;20440;-80
2021/12/24 11:35:13;;;;;;;4.40;3.70;;;;;;;;;;5071515;28;20463;-80
2021/12/24 11:37:41;;;;;;;3.53;3.27;;;;;;;;;;5068450;28;20432;-80
2021/12/24 11:40:09;;;;;;;3.17;2.97;;;;;;;;;;5066886;28;20451;-80
2021/12/24 11:42:40;;;;;;;4.00;2.80;;;;;;;;;;5072934;28;20886;-81
2021/12/24 11:45:07;;;;;;;3.30;3.10;;;;;;;;;;5081437;28;20489;-79
2021/12/24 11:47:36;;;;;;;3.27;2.97;;;;;;;;;;5082304;28;20493;-79
2021/12/24 11:50:03;;;;;;;3.27;2.97;;;;;;;;;;5079252;28;20444;-80
2021/12/24 11:52:30;;;;;;;3.10;2.90;;;;;;;;;;5078326;28;20440;-80
2021/12/24 11:55:00;;;;;;;4.90;2.53;;;;;;;;;;5078141;28;20700;-82
2021/12/24 11:57:27;;;;;;;5.20;2.20;;;;;;;;;;5080925;28;20451;-82
2021/12/24 11:59:54;;;;;;;3.00;2.30;;;;;;;;;;5079878;28;20456;-81
2021/12/24 12:02:44;;;;;;;3.80;3.13;;;;;;;;;;5073334;28;20931;-80
2021/12/24 12:05:16;;;;;;;6.50;3.00;;;;;;;;;;5058221;28;20850;-81
2021/12/24 12:07:43;;;;;;;2.70;2.37;;;;;;;;;;5056564;28;20417;-79
2021/12/24 12:10:10;;;;;;;2.70;2.50;;;;;;;;;;5054619;28;20451;-79
2021/12/24 12:12:38;;;;;;;2.73;2.50;;;;;;;;;;5051579;28;20516;-79
2021/12/24 12:15:28;;;;;;;2.93;2.70;;;;;;;;;;5053156;28;20452;-79
2021/12/24 12:17:58;;;;;;;2.67;2.57;;;;;;;;;;5054896;28;20452;-81
2021/12/24 12:20:43;;;;;;;2.63;2.42;;;;;;;;;;5055196;28;20523;-80
2021/12/24 12:23:15;;;;;;;2.90;2.70;;;;;;;;;;5054295;28;20770;-81
2021/12/24 12:25:42;;;;;;;3.15;2.47;;;;;;;;;;5056474;28;20490;-80
2021/12/24 12:28:15;;;;;;;2.90;2.70;;;;;;;;;;5058127;28;20235;-79
2021/12/24 12:30:49;;;;;;;2.67;2.47;;;;;;;;;;5059376;28;20454;-79
2021/12/24 12:33:18;;;;;;;1.77;1.67;;;;;;;;;;5058661;28;20499;-80
2021/12/24 12:35:49;;;;;;;2.40;2.20;;;;;;;;;;5057688;28;20896;-79
2021/12/24 12:38:33;;;;;;;2.13;1.97;;;;;;;;;;5058050;28;20417;-80
2021/12/24 12:41:19;;;;;;;2.20;1.80;;;;;;;;;;5058005;28;20518;-79
2021/12/24 12:43:47;;;;;;;2.43;2.23;;;;;;;;;;5058175;28;20454;-79
2021/12/24 12:46:19;;;;;;;2.10;2.00;;;;;;;;;;5057667;28;20990;-80
2021/12/24 12:48:53;;;;;;;1.73;1.63;;;;;;;;;;5058023;28;20449;-79
2021/12/24 12:51:21;;;;;;;2.00;1.73;;;;;;;;;;5058021;28;20441;-79
2021/12/24 12:53:50;;;;;;;2.40;1.70;;;;;;;;;;5057137;28;20823;-79
2021/12/24 12:56:19;;;;;;;1.67;1.57;;;;;;;;;;5057862;28;20471;-79
2021/12/24 12:58:48;;;;;;;2.70;2.50;;;;;;;;;;5059505;28;20696;-79
2021/12/24 13:01:17;;;;;;;1.57;1.47;;;;;;;;;;5060432;28;20441;-79
2021/12/24 13:04:03;;;;;;;1.70;1.60;;;;;;;;;;5076535;28;20477;-80
2021/12/24 13:06:46;;;;;;;1.87;1.77;;;;;;;;;;5078622;28;21039;-79
2021/12/24 13:09:16;;;;;;;1.75;1.65;;;;;;;;;;5083053;28;20448;-81
2021/12/24 13:11:45;;;;;;;3.90;1.63;;;;;;;;;;5084616;28;20202;-79
2021/12/24 13:14:12;;;;;;;1.90;1.70;;;;;;;;;;5085304;28;20463;-80
2021/12/24 13:16:44;;;;;;;1.93;1.83;;;;;;;;;;5081781;28;20518;-78
2021/12/24 13:24:46;;;;;;;1.40;1.40;;;;;;;;;;5083208;28;20446;-79
2021/12/24 13:27:13;;;;;;;2.20;1.47;;;;;;;;;;5082965;28;20482;-79
2021/12/24 13:29:40;;;;;;;1.30;1.30;;;;;;;;;;5082474;28;20444;-79
2021/12/24 13:32:07;;;;;;;1.43;1.33;;;;;;;;;;5080482;28;20455;-80
2021/12/24 13:34:36;;;;;;;3.30;3.00;;;;;;;;;;5081178;28;20448;-80
2021/12/24 13:37:03;;;;;;;2.70;1.60;;;;;;;;;;5079202;28;20451;-81
2021/12/24 13:39:30;;;;;;;1.37;1.30;;;;;;;;;;5080000;28;20452;-79
2021/12/24 13:42:03;;;;;;;4.10;1.60;;;;;;;;;;5079512;28;20806;-81
2021/12/24 13:44:31;;;;;;;2.58;1.60;;;;;;;;;;5076159;28;20534;-79
2021/12/24 13:47:02;;;;;;;1.37;1.30;;;;;;;;;;5077153;28;20211;-81
2021/12/24 13:55:16;;;;;;;1.80;1.70;;;;;;;;;;5076647;28;20432;-80
2021/12/24 13:57:51;;;;;;;1.88;1.50;;;;;;;;;;5076704;28;20434;-80
2021/12/24 14:00:19;;;;;;;1.30;1.30;;;;;;;;;;5077136;28;20209;-80
2021/12/24 14:02:51;;;;;;;1.93;1.83;;;;;;;;;;5066378;28;20445;-79
2021/12/24 14:05:19;;;;;;;3.33;2.30;;;;;;;;;;5056749;28;20472;-79
2021/12/24 14:07:47;;;;;;;2.67;2.47;;;;;;;;;;5056191;28;20857;-82
2021/12/24 14:10:25;;;;;;;2.17;1.70;;;;;;;;;;5056585;28;20587;-78
2021/12/24 14:12:54;;;;;;;1.80;1.70;;;;;;;;;;5056950;28;20518;-80
2021/12/24 14:15:26;;;;;;;1.60;1.60;;;;;;;;;;5056871;28;20468;-80
2021/12/24 14:18:17;;;;;;;2.00;1.90;;;;;;;;;;5055627;28;20209;-79
2021/12/24 14:21:44;;;;;;;1.75;1.65;;;;;;;;;;5056090;28;20463;-81
2021/12/24 14:23:47;;;;;;;2.07;1.87;;;;;;;;;;5054486;28;20285;-80
2021/12/24 14:26:14;;;;;;;1.70;1.60;;;;;;;;;;5055138;28;20517;-79
2021/12/24 14:28:52;;;;;;;1.87;1.77;;;;;;;;;;5056117;28;20676;-79
2021/12/24 14:31:19;;;;;;;1.50;1.40;;;;;;;;;;5055402;28;20874;-80
2021/12/24 14:33:47;;;;;;;1.80;1.70;;;;;;;;;;5056187;28;20512;-79
2021/12/24 14:36:18;;;;;;;1.97;1.87;;;;;;;;;;5055121;28;20492;-80
2021/12/24 14:38:45;;;;;;;1.85;1.75;;;;;;;;;;5055474;28;20468;-79
2021/12/24 14:41:16;;;;;;;1.57;1.47;;;;;;;;;;5055824;28;20209;-80
2021/12/24 14:43:43;;;;;;;1.70;1.60;;;;;;;;;;5055663;28;20500;-79
2021/12/24 14:46:12;;;;;;;1.80;1.70;;;;;;;;;;5055346;28;20485;-79
2021/12/24 14:48:39;;;;;;;2.20;1.63;;;;;;;;;;5056093;28;20438;-79
2021/12/24 14:51:07;;;;;;;1.50;1.50;;;;;;;;;;5062833;28;20428;-79
2021/12/24 14:53:36;;;;;;;2.00;1.90;;;;;;;;;;5075580;28;20210;-79
2021/12/24 14:56:05;;;;;;;2.13;2.03;;;;;;;;;;5069511;28;20217;-79
2021/12/24 14:58:34;;;;;;;1.70;1.60;;;;;;;;;;5069132;28;20461;-77
2021/12/24 15:01:02;;;;;;;2.13;1.80;;;;;;;;;;5072087;28;20485;-79
2021/12/24 15:03:31;;;;;;;1.60;1.50;;;;;;;;;;5085762;28;20447;-79
2021/12/24 15:05:59;;;;;;;1.80;1.70;;;;;;;;;;5081633;28;20548;-80
2021/12/24 15:08:27;;;;;;;2.03;1.93;;;;;;;;;;5077416;28;20448;-79
2021/12/24 15:10:58;;;;;;;1.53;1.47;;;;;;;;;;5078639;28;20456;-79
2021/12/24 15:13:27;;;;;;;1.90;1.80;;;;;;;;;;5077930;28;20448;-79
2021/12/24 15:15:55;;;;;;;1.57;1.53;;;;;;;;;;5076650;28;20471;-81
2021/12/24 15:18:22;;;;;;;3.37;1.80;;;;;;;;;;5076830;28;20543;-79
2021/12/24 15:20:51;;;;;;;1.40;1.33;;;;;;;;;;5076927;28;20429;-80
2021/12/24 15:23:18;;;;;;;2.00;1.90;;;;;;;;;;5076907;28;20425;-79
2021/12/24 15:25:45;;;;;;;1.40;1.40;;;;;;;;;;5083605;28;20463;-80
2021/12/24 15:28:17;;;;;;;1.23;1.23;;;;;;;;;;5076419;28;20876;-79
2021/12/24 15:30:45;;;;;;;1.75;1.65;;;;;;;;;;5076428;28;20445;-80
2021/12/24 15:33:12;;;;;;;1.57;1.50;;;;;;;;;;5075904;28;20193;-80
2021/12/24 15:35:39;;;;;;;1.63;1.53;;;;;;;;;;5076641;28;20556;-82
2021/12/24 15:38:08;;;;;;;1.60;1.50;;;;;;;;;;5076491;28;20443;-80
2021/12/24 15:40:35;;;;;;;1.40;1.40;;;;;;;;;;5076194;28;20664;-78
2021/12/24 15:43:03;;;;;;;1.50;1.40;;;;;;;;;;5075626;28;20479;-80
2021/12/24 15:45:31;;;;;;;1.40;1.30;;;;;;;;;;5075243;28;20241;-80
2021/12/24 15:47:59;;;;;;;1.63;1.57;;;;;;;;;;5074932;28;20850;-80
2021/12/24 15:50:26;;;;;;;1.43;1.40;;;;;;;;;;5075621;28;20436;-79
2021/12/24 15:52:53;;;;;;;1.50;1.50;;;;;;;;;;5075364;28;20435;-79
2021/12/24 15:55:22;;;;;;;1.83;1.73;;;;;;;;;;5075217;28;21113;-81
2021/12/24 15:57:49;;;;;;;1.50;1.43;;;;;;;;;;5075343;28;20437;-79
2021/12/24 16:00:17;;;;;;;1.40;1.40;;;;;;;;;;5076263;28;20452;-79
2021/12/24 16:02:44;;;;;;;2.00;1.90;;;;;;;;;;5069087;28;20445;-80
2021/12/24 16:05:12;;;;;;;1.90;1.77;;;;;;;;;;5058543;28;20479;-79
2021/12/24 16:07:39;;;;;;;1.80;1.70;;;;;;;;;;5058904;28;20533;-79
2021/12/24 16:10:07;;;;;;;1.60;1.50;;;;;;;;;;5058631;28;20462;-80
2021/12/24 16:12:35;;;;;;;1.77;1.67;;;;;;;;;;5058498;28;20433;-78
2021/12/24 16:15:02;;;;;;;2.30;2.13;;;;;;;;;;5058893;28;20487;-80
2021/12/24 16:17:29;;;;;;;2.17;2.07;;;;;;;;;;5059359;28;20449;-79